sensor_id;sensor_type;location;lat;lon;timestamp;temperature;humidity
71304;DHT22;59091;47.446;19.148;2022-09-14T00:01:55;17.76;61.98
71304;DHT22;59091;47.446;19.148;2022-09-14T00:04:21;17.69;61.57
71304;DHT22;59091;47.446;19.148;2022-09-14T00:06:47;17.69;61.76
71304;DHT22;59091;47.446;19.148;2022-09-14T00:09:19;17.64;61.73
71304;DHT22;59091;47.446;19.148;2022-09-14T00:11:45;17.63;61.85
71304;DHT22;59091;47.446;19.148;2022-09-14T00:14:11;17.60;62.06
71304;DHT22;59091;47.446;19.148;2022-09-14T00:16:38;17.59;62.48
71304;DHT22;59091;47.446;19.148;2022-09-14T00:19:26;17.56;62.76
71304;DHT22;59091;47.446;19.148;2022-09-14T00:21:56;17.56;62.50
71304;DHT22;59091;47.446;19.148;2022-09-14T00:24:23;17.53;62.05
71304;DHT22;59091;47.446;19.148;2022-09-14T00:26:49;17.51;62.58
71304;DHT22;59091;47.446;19.148;2022-09-14T00:29:15;17.49;62.39
71304;DHT22;59091;47.446;19.148;2022-09-14T00:31:40;17.46;62.69
71304;DHT22;59091;47.446;19.148;2022-09-14T00:34:10;17.45;62.78
71304;DHT22;59091;47.446;19.148;2022-09-14T00:36:44;17.43;63.01
71304;DHT22;59091;47.446;19.148;2022-09-14T00:39:12;17.42;63.24
71304;DHT22;59091;47.446;19.148;2022-09-14T00:41:40;17.42;63.12
71304;DHT22;59091;47.446;19.148;2022-09-14T00:46:54;17.39;63.07
71304;DHT22;59091;47.446;19.148;2022-09-14T00:49:32;17.36;62.51
71304;DHT22;59091;47.446;19.148;2022-09-14T00:52:19;17.29;63.03
71304;DHT22;59091;47.446;19.148;2022-09-14T00:54:48;17.33;62.81
71304;DHT22;59091;47.446;19.148;2022-09-14T00:57:16;17.27;63.11
71304;DHT22;59091;47.446;19.148;2022-09-14T00:59:43;17.27;62.89
71304;DHT22;59091;47.446;19.148;2022-09-14T01:02:10;17.22;62.88
71304;DHT22;59091;47.446;19.148;2022-09-14T01:04:37;17.23;63.05
71304;DHT22;59091;47.446;19.148;2022-09-14T01:07:25;17.19;63.05
71304;DHT22;59091;47.446;19.148;2022-09-14T01:10:33;17.14;63.50
71304;DHT22;59091;47.446;19.148;2022-09-14T01:13:32;17.15;64.07
71304;DHT22;59091;47.446;19.148;2022-09-14T01:18:27;17.18;64.28
71304;DHT22;59091;47.446;19.148;2022-09-14T01:23:40;17.22;64.68
71304;DHT22;59091;47.446;19.148;2022-09-14T01:29:08;17.11;63.85
71304;DHT22;59091;47.446;19.148;2022-09-14T01:32:27;17.14;64.35
71304;DHT22;59091;47.446;19.148;2022-09-14T01:34:47;17.12;64.77
71304;DHT22;59091;47.446;19.148;2022-09-14T01:39:47;17.19;64.82
71304;DHT22;59091;47.446;19.148;2022-09-14T01:42:16;17.20;64.42
71304;DHT22;59091;47.446;19.148;2022-09-14T01:44:47;17.23;64.15
71304;DHT22;59091;47.446;19.148;2022-09-14T01:47:53;17.16;63.74
71304;DHT22;59091;47.446;19.148;2022-09-14T01:50:26;17.14;63.96
71304;DHT22;59091;47.446;19.148;2022-09-14T01:52:59;17.16;63.97
71304;DHT22;59091;47.446;19.148;2022-09-14T01:55:30;17.16;63.84
71304;DHT22;59091;47.446;19.148;2022-09-14T01:58:01;17.12;63.73
71304;DHT22;59091;47.446;19.148;2022-09-14T02:00:30;17.08;63.72
71304;DHT22;59091;47.446;19.148;2022-09-14T02:03:13;17.05;63.53
71304;DHT22;59091;47.446;19.148;2022-09-14T02:05:43;16.86;64.16
71304;DHT22;59091;47.446;19.148;2022-09-14T02:08:11;16.96;64.22
71304;DHT22;59091;47.446;19.148;2022-09-14T02:10:36;16.98;64.50
71304;DHT22;59091;47.446;19.148;2022-09-14T02:13:02;16.96;64.41
71304;DHT22;59091;47.446;19.148;2022-09-14T02:15:28;16.92;64.19
71304;DHT22;59091;47.446;19.148;2022-09-14T02:17:53;16.92;64.49
71304;DHT22;59091;47.446;19.148;2022-09-14T02:20:41;16.86;64.41
71304;DHT22;59091;47.446;19.148;2022-09-14T02:23:08;16.92;64.64
71304;DHT22;59091;47.446;19.148;2022-09-14T02:25:34;16.92;64.86
71304;DHT22;59091;47.446;19.148;2022-09-14T02:28:01;16.94;64.64
71304;DHT22;59091;47.446;19.148;2022-09-14T02:30:26;16.95;64.45
71304;DHT22;59091;47.446;19.148;2022-09-14T02:33:11;16.82;64.19
71304;DHT22;59091;47.446;19.148;2022-09-14T02:35:49;16.84;64.91
71304;DHT22;59091;47.446;19.148;2022-09-14T02:38:38;16.86;64.55
71304;DHT22;59091;47.446;19.148;2022-09-14T02:41:33;16.85;65.25
71304;DHT22;59091;47.446;19.148;2022-09-14T02:52:06;16.74;64.69
71304;DHT22;59091;47.446;19.148;2022-09-14T02:54:37;16.86;64.98
71304;DHT22;59091;47.446;19.148;2022-09-14T02:57:04;16.86;64.77
71304;DHT22;59091;47.446;19.148;2022-09-14T02:59:29;16.91;64.54
71304;DHT22;59091;47.446;19.148;2022-09-14T03:01:55;16.88;64.19
71304;DHT22;59091;47.446;19.148;2022-09-14T03:04:22;16.89;65.05
71304;DHT22;59091;47.446;19.148;2022-09-14T03:06:47;16.86;65.48
71304;DHT22;59091;47.446;19.148;2022-09-14T03:09:13;16.76;66.34
71304;DHT22;59091;47.446;19.148;2022-09-14T03:11:38;16.78;66.92
71304;DHT22;59091;47.446;19.148;2022-09-14T03:14:04;16.82;66.48
71304;DHT22;59091;47.446;19.148;2022-09-14T03:16:29;16.85;66.88
71304;DHT22;59091;47.446;19.148;2022-09-14T03:18:54;16.86;67.25
71304;DHT22;59091;47.446;19.148;2022-09-14T03:21:20;16.91;66.65
71304;DHT22;59091;47.446;19.148;2022-09-14T03:23:47;16.96;66.24
71304;DHT22;59091;47.446;19.148;2022-09-14T03:26:19;16.99;66.53
71304;DHT22;59091;47.446;19.148;2022-09-14T03:28:49;17.04;65.94
71304;DHT22;59091;47.446;19.148;2022-09-14T03:31:15;17.06;64.94
71304;DHT22;59091;47.446;19.148;2022-09-14T03:33:40;17.12;64.70
71304;DHT22;59091;47.446;19.148;2022-09-14T03:38:35;17.16;64.51
71304;DHT22;59091;47.446;19.148;2022-09-14T03:41:07;17.22;63.94
71304;DHT22;59091;47.446;19.148;2022-09-14T03:43:32;17.22;63.80
71304;DHT22;59091;47.446;19.148;2022-09-14T03:45:58;17.26;63.78
71304;DHT22;59091;47.446;19.148;2022-09-14T03:48:28;17.22;62.46
71304;DHT22;59091;47.446;19.148;2022-09-14T03:50:53;17.23;62.58
71304;DHT22;59091;47.446;19.148;2022-09-14T03:53:19;17.29;63.19
71304;DHT22;59091;47.446;19.148;2022-09-14T03:55:44;17.33;63.27
71304;DHT22;59091;47.446;19.148;2022-09-14T03:58:10;17.35;62.62
71304;DHT22;59091;47.446;19.148;2022-09-14T04:00:35;17.39;63.00
71304;DHT22;59091;47.446;19.148;2022-09-14T04:03:00;17.36;63.16
71304;DHT22;59091;47.446;19.148;2022-09-14T04:05:26;17.36;63.15
71304;DHT22;59091;47.446;19.148;2022-09-14T04:07:51;17.37;63.41
71304;DHT22;59091;47.446;19.148;2022-09-14T04:10:16;17.32;63.44
71304;DHT22;59091;47.446;19.148;2022-09-14T04:12:43;17.32;63.73
71304;DHT22;59091;47.446;19.148;2022-09-14T04:15:09;17.33;63.45
71304;DHT22;59091;47.446;19.148;2022-09-14T04:17:34;17.32;63.55
71304;DHT22;59091;47.446;19.148;2022-09-14T04:20:00;17.35;64.92
71304;DHT22;59091;47.446;19.148;2022-09-14T04:22:25;17.39;64.43
71304;DHT22;59091;47.446;19.148;2022-09-14T04:24:52;17.42;63.91
71304;DHT22;59091;47.446;19.148;2022-09-14T04:27:18;17.40;63.98
71304;DHT22;59091;47.446;19.148;2022-09-14T04:29:43;17.37;63.94
71304;DHT22;59091;47.446;19.148;2022-09-14T04:32:09;17.39;64.09
71304;DHT22;59091;47.446;19.148;2022-09-14T04:34:35;17.37;64.21
71304;DHT22;59091;47.446;19.148;2022-09-14T04:37:00;17.36;63.94
71304;DHT22;59091;47.446;19.148;2022-09-14T04:39:26;17.39;63.54
71304;DHT22;59091;47.446;19.148;2022-09-14T04:41:51;17.37;64.21
71304;DHT22;59091;47.446;19.148;2022-09-14T04:44:17;17.36;64.02
71304;DHT22;59091;47.446;19.148;2022-09-14T04:46:42;17.35;63.96
71304;DHT22;59091;47.446;19.148;2022-09-14T04:49:08;17.32;63.82
71304;DHT22;59091;47.446;19.148;2022-09-14T04:51:35;17.35;63.90
71304;DHT22;59091;47.446;19.148;2022-09-14T04:54:02;17.36;64.23
71304;DHT22;59091;47.446;19.148;2022-09-14T04:56:30;17.40;64.23
71304;DHT22;59091;47.446;19.148;2022-09-14T04:58:58;17.94;64.82
71304;DHT22;59091;47.446;19.148;2022-09-14T05:01:26;18.07;63.52
71304;DHT22;59091;47.446;19.148;2022-09-14T05:03:52;18.09;62.84
71304;DHT22;59091;47.446;19.148;2022-09-14T05:06:20;18.22;62.63
71304;DHT22;59091;47.446;19.148;2022-09-14T05:08:47;18.31;62.16
71304;DHT22;59091;47.446;19.148;2022-09-14T05:11:18;18.34;61.65
71304;DHT22;59091;47.446;19.148;2022-09-14T05:13:44;18.36;61.51
71304;DHT22;59091;47.446;19.148;2022-09-14T05:16:18;18.41;61.35
71304;DHT22;59091;47.446;19.148;2022-09-14T05:18:44;18.45;61.41
71304;DHT22;59091;47.446;19.148;2022-09-14T05:21:14;18.51;61.11
71304;DHT22;59091;47.446;19.148;2022-09-14T05:23:39;18.58;61.15
71304;DHT22;59091;47.446;19.148;2022-09-14T05:26:05;18.65;60.93
71304;DHT22;59091;47.446;19.148;2022-09-14T05:28:32;18.75;60.63
71304;DHT22;59091;47.446;19.148;2022-09-14T05:30:58;18.77;60.45
71304;DHT22;59091;47.446;19.148;2022-09-14T05:33:24;18.86;60.63
71304;DHT22;59091;47.446;19.148;2022-09-14T05:35:50;18.89;60.32
71304;DHT22;59091;47.446;19.148;2022-09-14T05:38:16;18.95;60.07
71304;DHT22;59091;47.446;19.148;2022-09-14T05:40:42;18.92;59.70
71304;DHT22;59091;47.446;19.148;2022-09-14T05:43:07;18.83;58.02
71304;DHT22;59091;47.446;19.148;2022-09-14T05:45:33;18.86;59.31
71304;DHT22;59091;47.446;19.148;2022-09-14T05:48:03;18.87;58.03
71304;DHT22;59091;47.446;19.148;2022-09-14T05:50:32;18.92;59.15
71304;DHT22;59091;47.446;19.148;2022-09-14T05:52:58;19.06;59.11
71304;DHT22;59091;47.446;19.148;2022-09-14T05:55:24;19.16;58.87
71304;DHT22;59091;47.446;19.148;2022-09-14T05:57:50;19.24;58.73
71304;DHT22;59091;47.446;19.148;2022-09-14T06:00:16;19.28;58.74
71304;DHT22;59091;47.446;19.148;2022-09-14T06:02:49;19.59;58.39
71304;DHT22;59091;47.446;19.148;2022-09-14T06:05:15;20.08;56.72
71304;DHT22;59091;47.446;19.148;2022-09-14T06:07:41;20.41;55.51
71304;DHT22;59091;47.446;19.148;2022-09-14T06:10:07;20.63;54.62
71304;DHT22;59091;47.446;19.148;2022-09-14T06:12:33;20.97;53.85
71304;DHT22;59091;47.446;19.148;2022-09-14T06:14:58;21.20;52.80
71304;DHT22;59091;47.446;19.148;2022-09-14T06:17:23;21.30;52.44
71304;DHT22;59091;47.446;19.148;2022-09-14T06:19:49;21.35;52.32
71304;DHT22;59091;47.446;19.148;2022-09-14T06:22:14;21.46;52.14
71304;DHT22;59091;47.446;19.148;2022-09-14T06:24:40;21.59;51.71
71304;DHT22;59091;47.446;19.148;2022-09-14T06:27:05;21.56;51.59
71304;DHT22;59091;47.446;19.148;2022-09-14T06:29:33;21.56;51.87
71304;DHT22;59091;47.446;19.148;2022-09-14T06:31:59;21.20;53.44
71304;DHT22;59091;47.446;19.148;2022-09-14T06:34:24;21.12;53.37
71304;DHT22;59091;47.446;19.148;2022-09-14T06:36:50;20.94;53.42
71304;DHT22;59091;47.446;19.148;2022-09-14T06:39:16;21.01;53.20
71304;DHT22;59091;47.446;19.148;2022-09-14T06:41:41;20.91;53.35
71304;DHT22;59091;47.446;19.148;2022-09-14T06:44:07;20.92;53.51
71304;DHT22;59091;47.446;19.148;2022-09-14T06:46:34;20.98;53.87
71304;DHT22;59091;47.446;19.148;2022-09-14T06:49:03;20.87;54.91
71304;DHT22;59091;47.446;19.148;2022-09-14T06:53:57;20.83;54.54
71304;DHT22;59091;47.446;19.148;2022-09-14T06:56:26;20.76;54.73
71304;DHT22;59091;47.446;19.148;2022-09-14T06:58:52;20.64;55.75
71304;DHT22;59091;47.446;19.148;2022-09-14T07:01:18;20.59;55.64
71304;DHT22;59091;47.446;19.148;2022-09-14T07:03:45;20.49;55.68
71304;DHT22;59091;47.446;19.148;2022-09-14T07:06:17;20.32;56.51
71304;DHT22;59091;47.446;19.148;2022-09-14T07:08:44;20.18;57.00
71304;DHT22;59091;47.446;19.148;2022-09-14T07:11:11;20.10;59.05
71304;DHT22;59091;47.446;19.148;2022-09-14T07:13:36;20.00;60.01
71304;DHT22;59091;47.446;19.148;2022-09-14T07:16:02;19.95;60.78
71304;DHT22;59091;47.446;19.148;2022-09-14T07:18:28;19.93;61.22
71304;DHT22;59091;47.446;19.148;2022-09-14T07:21:13;19.81;62.17
71304;DHT22;59091;47.446;19.148;2022-09-14T07:23:40;19.72;62.46
71304;DHT22;59091;47.446;19.148;2022-09-14T07:28:33;19.68;64.15
71304;DHT22;59091;47.446;19.148;2022-09-14T07:30:59;19.72;64.53
71304;DHT22;59091;47.446;19.148;2022-09-14T07:33:25;19.71;64.07
71304;DHT22;59091;47.446;19.148;2022-09-14T07:35:51;19.72;64.23
71304;DHT22;59091;47.446;19.148;2022-09-14T07:38:17;19.71;65.69
71304;DHT22;59091;47.446;19.148;2022-09-14T07:40:43;19.69;65.06
71304;DHT22;59091;47.446;19.148;2022-09-14T07:43:08;19.71;65.43
71304;DHT22;59091;47.446;19.148;2022-09-14T07:45:34;19.75;65.91
71304;DHT22;59091;47.446;19.148;2022-09-14T07:48:01;19.91;65.57
71304;DHT22;59091;47.446;19.148;2022-09-14T07:50:26;19.99;65.82
71304;DHT22;59091;47.446;19.148;2022-09-14T07:52:51;20.09;65.25
71304;DHT22;59091;47.446;19.148;2022-09-14T07:55:17;20.09;62.78
71304;DHT22;59091;47.446;19.148;2022-09-14T07:57:43;20.22;64.59
71304;DHT22;59091;47.446;19.148;2022-09-14T08:00:09;20.25;65.24
71304;DHT22;59091;47.446;19.148;2022-09-14T08:02:35;20.29;65.21
71304;DHT22;59091;47.446;19.148;2022-09-14T08:05:01;20.28;64.91
71304;DHT22;59091;47.446;19.148;2022-09-14T08:07:26;20.22;64.19
71304;DHT22;59091;47.446;19.148;2022-09-14T08:09:52;20.32;64.50
71304;DHT22;59091;47.446;19.148;2022-09-14T08:12:17;20.44;64.67
71304;DHT22;59091;47.446;19.148;2022-09-14T08:14:42;20.56;64.52
71304;DHT22;59091;47.446;19.148;2022-09-14T08:17:08;20.56;64.73
71304;DHT22;59091;47.446;19.148;2022-09-14T08:19:35;20.59;64.41
71304;DHT22;59091;47.446;19.148;2022-09-14T08:22:02;20.37;65.11
71304;DHT22;59091;47.446;19.148;2022-09-14T08:24:28;20.19;66.04
71304;DHT22;59091;47.446;19.148;2022-09-14T08:26:54;20.29;65.95
71304;DHT22;59091;47.446;19.148;2022-09-14T08:29:19;20.34;65.43
71304;DHT22;59091;47.446;19.148;2022-09-14T08:31:45;20.47;64.86
71304;DHT22;59091;47.446;19.148;2022-09-14T08:34:11;20.70;64.86
71304;DHT22;59091;47.446;19.148;2022-09-14T08:36:38;20.91;64.45
71304;DHT22;59091;47.446;19.148;2022-09-14T08:39:05;21.11;64.15
71304;DHT22;59091;47.446;19.148;2022-09-14T08:41:50;21.27;62.71
71304;DHT22;59091;47.446;19.148;2022-09-14T08:44:26;21.18;62.09
71304;DHT22;59091;47.446;19.148;2022-09-14T08:46:53;21.48;62.15
71304;DHT22;59091;47.446;19.148;2022-09-14T08:49:44;21.63;61.74
71304;DHT22;59091;47.446;19.148;2022-09-14T08:55:00;22.17;60.80
71304;DHT22;59091;47.446;19.148;2022-09-14T08:57:46;22.30;60.27
71304;DHT22;59091;47.446;19.148;2022-09-14T09:00:14;22.51;60.00
71304;DHT22;59091;47.446;19.148;2022-09-14T09:11:16;22.90;58.67
71304;DHT22;59091;47.446;19.148;2022-09-14T09:13:43;23.13;59.50
71304;DHT22;59091;47.446;19.148;2022-09-14T09:16:09;23.33;58.47
71304;DHT22;59091;47.446;19.148;2022-09-14T09:21:12;23.46;57.01
71304;DHT22;59091;47.446;19.148;2022-09-14T09:23:40;23.59;57.04
71304;DHT22;59091;47.446;19.148;2022-09-14T09:26:26;23.78;56.40
71304;DHT22;59091;47.446;19.148;2022-09-14T09:28:54;23.94;56.57
71304;DHT22;59091;47.446;19.148;2022-09-14T09:31:33;23.98;56.60
71304;DHT22;59091;47.446;19.148;2022-09-14T09:34:00;24.03;56.42
71304;DHT22;59091;47.446;19.148;2022-09-14T09:36:29;23.97;56.43
71304;DHT22;59091;47.446;19.148;2022-09-14T09:38:57;24.10;56.55
71304;DHT22;59091;47.446;19.148;2022-09-14T09:41:26;24.32;56.33
71304;DHT22;59091;47.446;19.148;2022-09-14T09:44:06;24.38;55.74
71304;DHT22;59091;47.446;19.148;2022-09-14T09:46:37;24.51;54.75
71304;DHT22;59091;47.446;19.148;2022-09-14T09:49:15;24.45;55.44
71304;DHT22;59091;47.446;19.148;2022-09-14T09:51:41;24.38;54.95
71304;DHT22;59091;47.446;19.148;2022-09-14T09:54:17;24.62;54.66
71304;DHT22;59091;47.446;19.148;2022-09-14T09:56:52;24.63;55.11
71304;DHT22;59091;47.446;19.148;2022-09-14T10:01:53;24.66;55.33
71304;DHT22;59091;47.446;19.148;2022-09-14T10:04:26;24.65;54.50
71304;DHT22;59091;47.446;19.148;2022-09-14T10:06:53;24.71;54.68
71304;DHT22;59091;47.446;19.148;2022-09-14T10:09:21;24.79;54.72
71304;DHT22;59091;47.446;19.148;2022-09-14T10:11:59;24.61;54.15
71304;DHT22;59091;47.446;19.148;2022-09-14T10:14:28;24.61;54.82
71304;DHT22;59091;47.446;19.148;2022-09-14T10:17:15;24.79;54.09
71304;DHT22;59091;47.446;19.148;2022-09-14T10:19:52;25.02;54.05
71304;DHT22;59091;47.446;19.148;2022-09-14T10:22:26;25.10;53.13
71304;DHT22;59091;47.446;19.148;2022-09-14T10:32:48;25.78;51.95
71304;DHT22;59091;47.446;19.148;2022-09-14T10:35:18;25.65;52.06
71304;DHT22;59091;47.446;19.148;2022-09-14T10:40:38;25.74;52.03
71304;DHT22;59091;47.446;19.148;2022-09-14T10:43:14;25.89;51.99
71304;DHT22;59091;47.446;19.148;2022-09-14T10:45:49;26.01;51.02
71304;DHT22;59091;47.446;19.148;2022-09-14T10:56:49;25.73;52.94
71304;DHT22;59091;47.446;19.148;2022-09-14T11:02:18;25.80;52.81
71304;DHT22;59091;47.446;19.148;2022-09-14T11:05:14;25.70;52.60
71304;DHT22;59091;47.446;19.148;2022-09-14T11:16:08;26.21;52.91
71304;DHT22;59091;47.446;19.148;2022-09-14T11:22:02;26.49;52.42
71304;DHT22;59091;47.446;19.148;2022-09-14T11:24:41;26.31;52.25
71304;DHT22;59091;47.446;19.148;2022-09-14T11:27:19;26.42;52.57
71304;DHT22;59091;47.446;19.148;2022-09-14T11:29:50;26.47;51.90
71304;DHT22;59091;47.446;19.148;2022-09-14T11:35:33;26.06;53.22
71304;DHT22;59091;47.446;19.148;2022-09-14T11:38:07;26.12;52.57
71304;DHT22;59091;47.446;19.148;2022-09-14T11:40:41;26.11;52.77
71304;DHT22;59091;47.446;19.148;2022-09-14T11:43:21;26.12;53.62
71304;DHT22;59091;47.446;19.148;2022-09-14T11:45:54;26.22;53.18
71304;DHT22;59091;47.446;19.148;2022-09-14T11:51:28;26.08;52.65
71304;DHT22;59091;47.446;19.148;2022-09-14T11:53:56;25.92;53.55
71304;DHT22;59091;47.446;19.148;2022-09-14T11:56:30;26.01;53.57
71304;DHT22;59091;47.446;19.148;2022-09-14T11:58:59;26.32;52.79
71304;DHT22;59091;47.446;19.148;2022-09-14T12:01:34;26.57;52.50
71304;DHT22;59091;47.446;19.148;2022-09-14T12:11:39;27.00;52.33
71304;DHT22;59091;47.446;19.148;2022-09-14T12:17:03;27.21;50.01
71304;DHT22;59091;47.446;19.148;2022-09-14T12:19:30;27.28;49.72
71304;DHT22;59091;47.446;19.148;2022-09-14T12:22:16;27.38;49.70
71304;DHT22;59091;47.446;19.148;2022-09-14T12:24:42;27.37;49.72
71304;DHT22;59091;47.446;19.148;2022-09-14T12:27:35;27.20;50.15
71304;DHT22;59091;47.446;19.148;2022-09-14T12:30:00;27.28;49.35
71304;DHT22;59091;47.446;19.148;2022-09-14T12:32:37;27.48;48.95
71304;DHT22;59091;47.446;19.148;2022-09-14T12:35:42;27.38;48.87
71304;DHT22;59091;47.446;19.148;2022-09-14T12:54:15;27.70;48.44
71304;DHT22;59091;47.446;19.148;2022-09-14T12:59:51;27.76;48.02
71304;DHT22;59091;47.446;19.148;2022-09-14T13:05:17;27.56;49.70
71304;DHT22;59091;47.446;19.148;2022-09-14T13:07:43;27.42;49.54
71304;DHT22;59091;47.446;19.148;2022-09-14T13:10:31;27.27;49.92
71304;DHT22;59091;47.446;19.148;2022-09-14T13:13:00;27.17;51.03
71304;DHT22;59091;47.446;19.148;2022-09-14T13:15:32;27.10;50.60
71304;DHT22;59091;47.446;19.148;2022-09-14T13:20:53;27.12;50.68
71304;DHT22;59091;47.446;19.148;2022-09-14T13:23:23;27.17;50.07
71304;DHT22;59091;47.446;19.148;2022-09-14T13:25:51;27.10;49.46
71304;DHT22;59091;47.446;19.148;2022-09-14T13:28:18;27.17;49.07
71304;DHT22;59091;47.446;19.148;2022-09-14T13:30:53;26.97;49.38
71304;DHT22;59091;47.446;19.148;2022-09-14T13:33:19;27.00;50.30
71304;DHT22;59091;47.446;19.148;2022-09-14T13:35:53;27.15;50.34
71304;DHT22;59091;47.446;19.148;2022-09-14T13:38:24;27.30;50.01
71304;DHT22;59091;47.446;19.148;2022-09-14T13:40:53;27.48;49.57
71304;DHT22;59091;47.446;19.148;2022-09-14T13:43:21;27.47;49.44
71304;DHT22;59091;47.446;19.148;2022-09-14T13:45:48;27.47;49.66
71304;DHT22;59091;47.446;19.148;2022-09-14T13:48:16;27.30;50.00
71304;DHT22;59091;47.446;19.148;2022-09-14T13:50:46;27.30;49.38
71304;DHT22;59091;47.446;19.148;2022-09-14T13:53:41;27.23;49.69
71304;DHT22;59091;47.446;19.148;2022-09-14T14:01:39;26.87;50.13
71304;DHT22;59091;47.446;19.148;2022-09-14T14:04:22;26.82;50.71
71304;DHT22;59091;47.446;19.148;2022-09-14T14:07:20;26.70;50.65
71304;DHT22;59091;47.446;19.148;2022-09-14T14:09:46;26.87;50.22
71304;DHT22;59091;47.446;19.148;2022-09-14T14:12:26;26.93;50.57
71304;DHT22;59091;47.446;19.148;2022-09-14T14:17:39;26.83;50.60
71304;DHT22;59091;47.446;19.148;2022-09-14T14:25:36;27.14;49.88
71304;DHT22;59091;47.446;19.148;2022-09-14T14:28:12;27.15;49.78
71304;DHT22;59091;47.446;19.148;2022-09-14T14:30:40;27.14;49.39
71304;DHT22;59091;47.446;19.148;2022-09-14T14:33:13;27.21;49.33
71304;DHT22;59091;47.446;19.148;2022-09-14T14:35:40;27.28;49.30
71304;DHT22;59091;47.446;19.148;2022-09-14T14:38:06;27.33;49.64
71304;DHT22;59091;47.446;19.148;2022-09-14T14:40:32;27.33;49.01
71304;DHT22;59091;47.446;19.148;2022-09-14T14:43:00;27.35;48.89
71304;DHT22;59091;47.446;19.148;2022-09-14T14:45:27;27.42;48.69
71304;DHT22;59091;47.446;19.148;2022-09-14T14:47:53;27.45;48.33
71304;DHT22;59091;47.446;19.148;2022-09-14T14:50:28;27.49;48.56
71304;DHT22;59091;47.446;19.148;2022-09-14T14:52:53;27.58;48.51
71304;DHT22;59091;47.446;19.148;2022-09-14T14:55:19;27.51;48.95
71304;DHT22;59091;47.446;19.148;2022-09-14T14:57:46;27.47;49.44
71304;DHT22;59091;47.446;19.148;2022-09-14T15:00:15;27.38;49.87
71304;DHT22;59091;47.446;19.148;2022-09-14T15:02:41;27.21;50.62
71304;DHT22;59091;47.446;19.148;2022-09-14T15:05:07;27.14;50.52
71304;DHT22;59091;47.446;19.148;2022-09-14T15:07:32;27.06;50.51
71304;DHT22;59091;47.446;19.148;2022-09-14T15:09:58;26.98;50.70
71304;DHT22;59091;47.446;19.148;2022-09-14T15:12:23;26.64;51.89
71304;DHT22;59091;47.446;19.148;2022-09-14T15:14:48;26.63;51.94
71304;DHT22;59091;47.446;19.148;2022-09-14T15:17:14;26.63;52.11
71304;DHT22;59091;47.446;19.148;2022-09-14T15:19:40;26.64;52.38
71304;DHT22;59091;47.446;19.148;2022-09-14T15:22:05;26.55;52.47
71304;DHT22;59091;47.446;19.148;2022-09-14T15:24:31;26.52;52.63
71304;DHT22;59091;47.446;19.148;2022-09-14T15:26:57;26.53;52.79
71304;DHT22;59091;47.446;19.148;2022-09-14T15:29:23;26.49;53.36
71304;DHT22;59091;47.446;19.148;2022-09-14T15:31:49;26.46;53.03
71304;DHT22;59091;47.446;19.148;2022-09-14T15:34:14;26.56;52.71
71304;DHT22;59091;47.446;19.148;2022-09-14T15:36:45;26.57;53.02
71304;DHT22;59091;47.446;19.148;2022-09-14T15:39:23;26.55;52.96
71304;DHT22;59091;47.446;19.148;2022-09-14T15:41:49;26.52;52.96
71304;DHT22;59091;47.446;19.148;2022-09-14T15:44:15;26.47;53.09
71304;DHT22;59091;47.446;19.148;2022-09-14T15:46:41;26.29;53.70
71304;DHT22;59091;47.446;19.148;2022-09-14T15:49:11;26.26;53.39
71304;DHT22;59091;47.446;19.148;2022-09-14T15:51:37;26.15;53.65
71304;DHT22;59091;47.446;19.148;2022-09-14T15:54:06;26.06;53.88
71304;DHT22;59091;47.446;19.148;2022-09-14T15:56:31;26.01;53.35
71304;DHT22;59091;47.446;19.148;2022-09-14T15:58:57;25.98;54.25
71304;DHT22;59091;47.446;19.148;2022-09-14T16:01:23;25.96;54.07
71304;DHT22;59091;47.446;19.148;2022-09-14T16:03:58;25.96;53.62
71304;DHT22;59091;47.446;19.148;2022-09-14T16:06:23;25.94;53.67
71304;DHT22;59091;47.446;19.148;2022-09-14T16:08:49;25.92;54.17
71304;DHT22;59091;47.446;19.148;2022-09-14T16:11:14;25.82;54.91
71304;DHT22;59091;47.446;19.148;2022-09-14T16:13:40;25.74;54.37
71304;DHT22;59091;47.446;19.148;2022-09-14T16:16:10;25.74;55.44
71304;DHT22;59091;47.446;19.148;2022-09-14T16:18:36;25.68;55.77
71304;DHT22;59091;47.446;19.148;2022-09-14T16:21:06;25.61;55.98
71304;DHT22;59091;47.446;19.148;2022-09-14T16:23:34;25.54;56.02
71304;DHT22;59091;47.446;19.148;2022-09-14T16:26:07;25.47;56.10
71304;DHT22;59091;47.446;19.148;2022-09-14T16:28:37;25.38;56.81
71304;DHT22;59091;47.446;19.148;2022-09-14T16:31:05;25.28;56.88
71304;DHT22;59091;47.446;19.148;2022-09-14T16:33:35;25.23;56.91
71304;DHT22;59091;47.446;19.148;2022-09-14T16:36:06;25.16;57.15
71304;DHT22;59091;47.446;19.148;2022-09-14T16:38:33;25.07;57.58
71304;DHT22;59091;47.446;19.148;2022-09-14T16:40:59;24.99;57.72
71304;DHT22;59091;47.446;19.148;2022-09-14T16:43:26;24.92;57.86
71304;DHT22;59091;47.446;19.148;2022-09-14T16:46:13;24.82;58.03
71304;DHT22;59091;47.446;19.148;2022-09-14T16:48:41;24.75;58.46
71304;DHT22;59091;47.446;19.148;2022-09-14T16:51:07;24.66;58.92
71304;DHT22;59091;47.446;19.148;2022-09-14T16:53:36;24.56;59.32
71304;DHT22;59091;47.446;19.148;2022-09-14T16:56:05;24.49;59.74
71304;DHT22;59091;47.446;19.148;2022-09-14T16:58:32;24.36;59.95
71304;DHT22;59091;47.446;19.148;2022-09-14T17:01:16;24.28;60.24
71304;DHT22;59091;47.446;19.148;2022-09-14T17:03:43;24.17;60.52
71304;DHT22;59091;47.446;19.148;2022-09-14T17:06:11;24.07;60.69
71304;DHT22;59091;47.446;19.148;2022-09-14T17:08:38;23.98;60.99
71304;DHT22;59091;47.446;19.148;2022-09-14T17:11:04;23.91;61.26
71304;DHT22;59091;47.446;19.148;2022-09-14T17:13:30;23.87;61.16
71304;DHT22;59091;47.446;19.148;2022-09-14T17:16:08;23.78;61.96
71304;DHT22;59091;47.446;19.148;2022-09-14T17:18:35;23.70;62.18
71304;DHT22;59091;47.446;19.148;2022-09-14T17:21:04;23.57;62.66
71304;DHT22;59091;47.446;19.148;2022-09-14T17:23:29;23.54;63.00
71304;DHT22;59091;47.446;19.148;2022-09-14T17:25:55;23.43;62.87
71304;DHT22;59091;47.446;19.148;2022-09-14T17:28:22;23.39;63.28
71304;DHT22;59091;47.446;19.148;2022-09-14T17:30:56;23.29;63.27
71304;DHT22;59091;47.446;19.148;2022-09-14T17:33:22;23.24;63.58
71304;DHT22;59091;47.446;19.148;2022-09-14T17:35:53;23.16;63.66
71304;DHT22;59091;47.446;19.148;2022-09-14T17:38:20;23.11;63.89
71304;DHT22;59091;47.446;19.148;2022-09-14T17:40:46;23.02;64.06
71304;DHT22;59091;47.446;19.148;2022-09-14T17:43:12;23.01;64.62
71304;DHT22;59091;47.446;19.148;2022-09-14T17:45:38;22.95;64.74